Time;durP1;ratioP1;P1;durP2;ratioP2;P2;SDS_P1;SDS_P2;PMS_P1;PMS_P2;Temp;Humidity;BMP_temperature;BMP_pressure;BME280_temperature;BME280_humidity;BME280_pressure;Samples;Min_cycle;Max_cycle;Signal;HPM_P1;HPM_P2
2022/01/02 00:00:02;;;;;;;23.27;14.63;;;3.10;99.90;;;;;;5009791;28;20218;-88
2022/01/02 00:02:50;;;;;;;20.93;15.07;;;3.10;99.90;;;;;;5014318;28;20198;-88
2022/01/02 00:05:20;;;;;;;20.57;15.23;;;3.10;99.90;;;;;;4998125;28;20179;-88
2022/01/02 00:08:02;;;;;;;21.63;15.00;;;3.00;99.90;;;;;;4998077;28;20182;-88
2022/01/02 00:10:31;;;;;;;22.53;14.27;;;2.90;99.90;;;;;;4997972;28;20175;-88
2022/01/02 00:12:59;;;;;;;20.90;14.77;;;3.00;99.90;;;;;;4998128;28;20207;-88
2022/01/02 00:15:26;;;;;;;20.87;14.57;;;3.00;99.90;;;;;;4997984;28;20187;-88
2022/01/02 00:17:53;;;;;;;19.97;13.93;;;3.00;99.90;;;;;;4997672;28;20202;-88
2022/01/02 00:20:21;;;;;;;18.70;13.30;;;3.00;99.90;;;;;;4997771;28;20306;-88
2022/01/02 00:22:50;;;;;;;16.93;13.40;;;2.90;99.90;;;;;;4997748;28;20270;-88
2022/01/02 00:25:27;;;;;;;19.60;14.43;;;2.90;99.90;;;;;;4998252;28;20183;-88
2022/01/02 00:27:53;;;;;;;22.17;15.70;;;3.00;99.90;;;;;;4997992;28;20202;-88
2022/01/02 00:30:19;;;;;;;21.27;15.30;;;3.00;99.90;;;;;;4997528;28;20222;-88
2022/01/02 00:32:45;;;;;;;20.67;14.93;;;3.00;99.90;;;;;;4997639;28;20207;-88
2022/01/02 00:35:57;;;;;;;23.07;14.97;;;3.00;99.90;;;;;;4997457;28;20194;-88
2022/01/02 00:38:23;;;;;;;21.60;14.10;;;3.00;99.90;;;;;;4997534;28;20179;-88
2022/01/02 00:40:53;;;;;;;20.13;15.40;;;2.90;99.90;;;;;;4997732;28;20207;-88
2022/01/02 00:43:45;;;;;;;29.63;21.03;;;2.90;99.90;;;;;;4997597;28;20175;-88
2022/01/02 00:46:14;;;;;;;28.57;20.40;;;2.90;99.90;;;;;;4996909;28;20217;-88
2022/01/02 00:48:44;;;;;;;29.73;21.30;;;2.90;99.90;;;;;;4997201;28;20309;-88
2022/01/02 00:51:20;;;;;;;23.80;17.87;;;2.80;99.90;;;;;;4997373;28;20215;-88
2022/01/02 00:53:48;;;;;;;26.73;16.53;;;2.80;99.90;;;;;;4997045;28;20183;-88
2022/01/02 00:56:18;;;;;;;20.77;15.30;;;2.80;99.90;;;;;;5013554;28;20238;-88
2022/01/02 00:59:01;;;;;;;22.80;15.87;;;2.70;99.90;;;;;;4997240;28;20175;-88
2022/01/02 01:01:34;;;;;;;25.27;16.00;;;2.70;99.90;;;;;;4997588;28;20206;-88
2022/01/02 01:04:02;;;;;;;22.50;17.00;;;2.60;99.90;;;;;;4997267;28;20758;-88
2022/01/02 01:06:33;;;;;;;25.27;15.80;;;2.70;99.90;;;;;;4997111;28;20175;-88
2022/01/02 01:09:03;;;;;;;26.03;17.33;;;2.60;99.90;;;;;;5013411;28;20186;-88
2022/01/02 01:11:29;;;;;;;23.90;16.37;;;2.70;99.90;;;;;;5013600;28;20200;-88
2022/01/02 01:13:57;;;;;;;20.83;14.93;;;2.70;99.90;;;;;;4996990;28;20178;-88
2022/01/02 01:16:23;;;;;;;18.70;13.83;;;2.70;99.90;;;;;;4996839;28;20234;-88
2022/01/02 01:18:49;;;;;;;18.07;13.23;;;2.70;99.90;;;;;;4996964;28;20238;-88
2022/01/02 01:21:16;;;;;;;18.40;13.03;;;2.70;99.90;;;;;;4997095;28;20218;-88
2022/01/02 01:23:42;;;;;;;15.90;12.40;;;2.70;99.90;;;;;;4997160;28;20194;-89
2022/01/02 01:26:10;;;;;;;15.77;11.83;;;2.70;99.90;;;;;;4997087;28;20179;-88
2022/01/02 01:28:37;;;;;;;15.57;11.50;;;2.70;99.90;;;;;;4996750;28;20179;-88
2022/01/02 01:31:03;;;;;;;17.97;12.33;;;2.70;99.90;;;;;;4996874;28;20222;-88
2022/01/02 01:33:30;;;;;;;14.57;10.20;;;2.60;99.90;;;;;;4997087;28;20183;-88
2022/01/02 01:35:56;;;;;;;14.50;10.63;;;2.60;99.90;;;;;;4996512;28;20269;-88
2022/01/02 01:38:22;;;;;;;14.63;10.20;;;2.60;99.90;;;;;;4996400;28;20548;-88
2022/01/02 01:40:57;;;;;;;14.13;10.27;;;2.60;99.90;;;;;;4996341;28;20257;-88
2022/01/02 01:46:13;;;;;;;12.70;9.70;;;2.70;99.90;;;;;;5002250;28;20198;-88
2022/01/02 01:48:39;;;;;;;13.47;10.00;;;2.60;99.90;;;;;;5013054;28;20180;-88
2022/01/02 01:51:05;;;;;;;11.90;8.70;;;2.60;99.90;;;;;;4996545;28;20199;-88
2022/01/02 01:53:31;;;;;;;14.07;9.90;;;2.50;99.90;;;;;;5012647;28;20191;-88
2022/01/02 01:55:57;;;;;;;14.17;9.77;;;2.50;99.90;;;;;;5013038;28;20187;-88
2022/01/02 01:58:24;;;;;;;12.30;9.10;;;2.50;99.90;;;;;;5013035;28;20184;-88
2022/01/02 02:00:50;;;;;;;12.47;8.70;;;2.50;99.90;;;;;;5012738;28;20207;-88
2022/01/02 02:03:29;;;;;;;12.53;8.87;;;2.40;99.90;;;;;;5013800;28;20202;-88
2022/01/02 02:05:56;;;;;;;11.17;8.87;;;2.40;99.90;;;;;;5012513;28;20180;-88
2022/01/02 02:08:26;;;;;;;12.13;8.97;;;2.40;99.90;;;;;;5012474;28;20171;-88
2022/01/02 02:10:56;;;;;;;11.73;9.27;;;2.40;99.90;;;;;;5012661;28;20206;-88
2022/01/02 02:13:23;;;;;;;12.00;8.77;;;2.40;99.90;;;;;;5012899;28;20179;-88
2022/01/02 02:15:52;;;;;;;12.00;8.80;;;2.40;99.90;;;;;;5012843;28;20186;-88
2022/01/02 02:18:18;;;;;;;13.27;8.60;;;2.40;99.90;;;;;;5012072;28;20268;-88
2022/01/02 02:20:45;;;;;;;10.77;8.03;;;2.40;99.90;;;;;;5012253;28;20214;-88
2022/01/02 02:23:17;;;;;;;11.00;8.90;;;2.40;99.90;;;;;;5013118;28;20662;-88
2022/01/02 02:25:43;;;;;;;11.23;8.27;;;2.40;99.90;;;;;;5028658;28;20581;-88
2022/01/02 02:28:11;;;;;;;11.53;8.53;;;2.50;99.90;;;;;;5012194;28;20178;-88
2022/01/02 02:30:40;;;;;;;9.57;7.83;;;2.40;99.90;;;;;;5012478;28;20175;-88
2022/01/02 02:33:08;;;;;;;14.10;10.40;;;2.40;99.90;;;;;;5012202;28;20194;-88
2022/01/02 02:35:36;;;;;;;17.93;12.87;;;2.30;99.90;;;;;;5012155;28;20183;-88
2022/01/02 02:38:05;;;;;;;14.60;11.23;;;2.20;99.90;;;;;;4995975;28;20183;-88
2022/01/02 02:40:31;;;;;;;14.47;10.70;;;2.20;99.90;;;;;;4996189;28;20214;-88
2022/01/02 02:44:07;;;;;;;14.17;10.87;;;2.20;99.90;;;;;;4996297;28;20226;-88
2022/01/02 02:49:00;;;;;;;12.17;8.87;;;2.20;99.90;;;;;;5028683;28;20187;-88
2022/01/02 02:51:50;;;;;;;13.87;9.73;;;2.20;99.90;;;;;;5012312;28;20278;-88
2022/01/02 02:54:27;;;;;;;12.37;8.77;;;2.20;99.90;;;;;;5013046;28;20199;-88
2022/01/02 02:56:58;;;;;;;22.17;14.67;;;2.10;99.90;;;;;;5011436;28;20180;-88
2022/01/02 02:59:31;;;;;;;20.97;13.17;;;1.80;99.90;;;;;;4995816;28;20214;-88
2022/01/02 03:01:58;;;;;;;15.60;11.23;;;1.80;99.90;;;;;;5028141;28;20278;-88
2022/01/02 03:04:26;;;;;;;15.97;11.17;;;1.80;99.90;;;;;;4995858;28;20206;-88
2022/01/02 03:06:53;;;;;;;15.33;10.63;;;1.80;99.90;;;;;;4995807;28;20243;-88
2022/01/02 03:09:37;;;;;;;14.37;10.23;;;1.80;99.90;;;;;;4995541;28;20194;-88
2022/01/02 03:12:06;;;;;;;12.43;9.33;;;1.80;99.90;;;;;;4994930;28;20538;-88
2022/01/02 03:14:35;;;;;;;36.87;22.43;;;1.80;99.90;;;;;;5011269;28;20206;-87
2022/01/02 03:17:03;;;;;;;24.67;15.33;;;1.80;99.90;;;;;;4997711;28;20187;-88
2022/01/02 03:19:31;;;;;;;17.73;11.37;;;1.80;99.90;;;;;;5032009;28;20199;-88
2022/01/02 03:21:58;;;;;;;13.47;9.03;;;1.70;99.90;;;;;;4999078;28;20691;-88
2022/01/02 03:24:24;;;;;;;12.90;8.90;;;1.80;99.90;;;;;;5015323;28;20176;-88
2022/01/02 03:26:50;;;;;;;13.37;9.13;;;1.80;99.90;;;;;;5015293;28;20270;-88
2022/01/02 03:29:22;;;;;;;12.30;8.70;;;1.80;99.90;;;;;;5014897;28;20270;-87
2022/01/02 03:31:49;;;;;;;13.23;8.97;;;1.80;99.90;;;;;;5014965;28;20231;-88
2022/01/02 03:34:15;;;;;;;13.50;8.83;;;1.80;99.90;;;;;;5015162;28;20644;-88
2022/01/02 03:36:41;;;;;;;13.67;8.77;;;1.80;99.90;;;;;;5015512;28;20187;-88
2022/01/02 03:39:07;;;;;;;11.87;8.53;;;1.70;99.90;;;;;;5031605;28;20270;-88
2022/01/02 03:41:33;;;;;;;10.70;8.00;;;1.70;99.90;;;;;;5014985;28;20778;-88
2022/01/02 03:43:59;;;;;;;11.20;8.60;;;1.70;99.90;;;;;;5014961;28;20182;-88
2022/01/02 03:46:26;;;;;;;11.93;8.37;;;1.70;99.90;;;;;;5014932;28;20179;-88
2022/01/02 03:49:04;;;;;;;12.77;8.90;;;1.70;99.90;;;;;;5014760;28;20178;-88
2022/01/02 03:51:30;;;;;;;12.30;8.50;;;1.70;99.90;;;;;;5014927;28;20202;-88
2022/01/02 03:53:56;;;;;;;11.83;7.67;;;1.60;99.90;;;;;;5031400;28;20175;-88
2022/01/02 03:56:24;;;;;;;10.80;7.27;;;1.60;99.90;;;;;;5014993;28;20170;-88
2022/01/02 03:58:50;;;;;;;10.60;8.10;;;1.70;99.90;;;;;;5014497;28;20262;-88
2022/01/02 04:01:16;;;;;;;12.17;8.70;;;1.70;99.90;;;;;;5014552;28;20211;-88
2022/01/02 04:03:42;;;;;;;12.33;8.63;;;1.70;99.90;;;;;;5031478;28;20194;-88
2022/01/02 04:06:08;;;;;;;12.73;8.83;;;1.80;99.90;;;;;;5014476;28;20182;-88
2022/01/02 04:08:34;;;;;;;11.50;8.37;;;1.80;99.90;;;;;;5014372;28;20180;-88
2022/01/02 04:11:00;;;;;;;12.07;8.50;;;1.80;99.90;;;;;;5014366;28;20203;-88
2022/01/02 04:13:26;;;;;;;12.17;8.90;;;1.80;99.90;;;;;;5014428;28;20179;-88
2022/01/02 04:15:52;;;;;;;12.00;7.83;;;1.90;99.90;;;;;;5014455;28;20179;-88
2022/01/02 04:18:18;;;;;;;11.17;8.20;;;1.90;99.90;;;;;;5014037;28;20607;-88
2022/01/02 04:20:44;;;;;;;12.43;8.77;;;1.90;99.90;;;;;;5014126;28;20214;-88
2022/01/02 04:23:10;;;;;;;12.40;7.90;;;1.90;99.90;;;;;;5014707;28;20540;-88
2022/01/02 04:25:41;;;;;;;10.83;8.27;;;1.90;99.90;;;;;;5013954;28;20171;-88
2022/01/02 04:28:08;;;;;;;9.87;7.63;;;1.90;99.90;;;;;;5013142;28;20171;-88
2022/01/02 04:30:35;;;;;;;12.80;8.40;;;1.90;99.90;;;;;;5017868;28;20244;-88
2022/01/02 04:33:01;;;;;;;10.13;7.47;;;1.90;99.90;;;;;;5017400;28;20203;-88
2022/01/02 04:35:27;;;;;;;10.20;7.27;;;1.90;99.90;;;;;;5017727;28;20269;-88
2022/01/02 04:37:53;;;;;;;10.10;7.73;;;1.90;99.90;;;;;;5017617;28;20270;-88
2022/01/02 04:40:19;;;;;;;8.60;7.10;;;1.90;99.90;;;;;;5017444;28;20203;-88
2022/01/02 04:42:45;;;;;;;10.57;7.43;;;1.90;99.90;;;;;;5017236;28;20223;-88
2022/01/02 04:45:10;;;;;;;9.83;7.73;;;1.90;99.90;;;;;;5017470;28;20182;-88
2022/01/02 04:47:36;;;;;;;8.50;6.83;;;1.90;99.90;;;;;;5017202;28;20178;-87
2022/01/02 04:50:05;;;;;;;9.80;7.77;;;1.90;99.90;;;;;;5017427;28;20183;-88
2022/01/02 04:53:00;;;;;;;11.03;8.10;;;1.90;99.90;;;;;;5017192;28;20202;-88
2022/01/02 04:55:27;;;;;;;9.50;7.60;;;1.90;99.90;;;;;;5017395;28;20469;-88
2022/01/02 04:57:52;;;;;;;9.80;7.17;;;1.90;99.90;;;;;;5017105;28;20179;-88
2022/01/02 05:00:20;;;;;;;10.43;7.00;;;1.80;99.90;;;;;;5003246;28;20210;-87
2022/01/02 05:02:52;;;;;;;8.13;6.47;;;1.80;99.90;;;;;;5013452;28;20195;-88
2022/01/02 05:05:19;;;;;;;9.50;6.70;;;1.90;99.90;;;;;;4997419;28;20256;-88
2022/01/02 05:07:45;;;;;;;10.97;7.27;;;1.80;99.90;;;;;;5013244;28;20175;-88
2022/01/02 05:10:12;;;;;;;11.37;8.20;;;1.80;99.90;;;;;;5013736;28;20286;-88
2022/01/02 05:12:38;;;;;;;9.40;7.13;;;1.80;99.90;;;;;;5013257;28;20195;-88
2022/01/02 05:15:05;;;;;;;7.27;6.43;;;1.80;99.90;;;;;;5013412;28;20175;-88
2022/01/02 05:17:31;;;;;;;8.43;7.00;;;1.80;99.90;;;;;;5013345;28;20262;-88
2022/01/02 05:19:57;;;;;;;7.70;6.13;;;1.70;99.90;;;;;;4996661;28;20242;-88
2022/01/02 05:22:23;;;;;;;9.07;6.70;;;1.70;99.90;;;;;;5013191;28;20245;-88
2022/01/02 05:24:49;;;;;;;7.77;5.80;;;1.70;99.90;;;;;;5013494;28;20264;-88
2022/01/02 05:27:15;;;;;;;7.87;5.90;;;1.80;99.90;;;;;;5013472;28;20266;-88
2022/01/02 05:29:42;;;;;;;7.80;6.63;;;1.80;99.90;;;;;;5013028;28;20537;-88
2022/01/02 05:32:08;;;;;;;8.67;6.77;;;1.80;99.90;;;;;;5012892;28;20206;-88
2022/01/02 05:34:34;;;;;;;8.93;6.37;;;1.80;99.90;;;;;;5012795;28;20183;-88
2022/01/02 05:36:59;;;;;;;7.83;6.30;;;1.80;99.90;;;;;;4996544;28;20270;-88
2022/01/02 05:39:25;;;;;;;8.20;6.57;;;1.80;99.90;;;;;;5012564;28;20196;-88
2022/01/02 05:41:53;;;;;;;8.60;6.67;;;1.80;99.90;;;;;;5012600;28;20202;-88
2022/01/02 05:44:23;;;;;;;8.33;6.70;;;1.80;99.90;;;;;;5012938;28;20238;-88
2022/01/02 05:46:49;;;;;;;9.23;6.93;;;1.80;99.90;;;;;;4996763;28;20183;-88
2022/01/02 05:49:16;;;;;;;9.90;7.00;;;1.80;99.90;;;;;;5012615;28;20182;-88
2022/01/02 05:51:43;;;;;;;8.70;7.20;;;1.80;99.90;;;;;;5012857;28;20212;-88
2022/01/02 05:54:09;;;;;;;10.67;7.63;;;1.90;99.90;;;;;;5012910;28;20179;-88
2022/01/02 05:56:35;;;;;;;11.10;8.30;;;1.90;99.90;;;;;;4996677;28;20175;-88
2022/01/02 05:59:02;;;;;;;8.97;6.63;;;1.90;99.90;;;;;;5012671;28;20182;-88
2022/01/02 06:05:15;;;;;;;10.27;6.80;;;1.80;99.90;;;;;;5013789;28;20243;-88
2022/01/02 06:07:41;;;;;;;10.13;6.17;;;1.70;99.90;;;;;;5012120;28;20652;-88
2022/01/02 06:10:29;;;;;;;10.80;7.27;;;1.60;99.90;;;;;;5012080;28;20298;-88
2022/01/02 06:12:55;;;;;;;9.00;6.60;;;1.60;99.90;;;;;;5012787;28;20286;-88
2022/01/02 06:15:21;;;;;;;7.30;6.00;;;1.60;99.90;;;;;;5012445;28;20187;-88
2022/01/02 06:17:48;;;;;;;8.90;6.77;;;1.70;99.90;;;;;;5012363;28;20191;-88
2022/01/02 06:20:14;;;;;;;12.67;9.53;;;1.70;99.90;;;;;;5012160;28;20598;-88
2022/01/02 06:22:40;;;;;;;24.20;16.50;;;1.70;99.90;;;;;;5012676;28;20191;-88
2022/01/02 06:25:51;;;;;;;21.87;14.00;;;1.70;99.90;;;;;;4996079;28;20190;-88
2022/01/02 06:28:19;;;;;;;15.37;9.10;;;1.70;99.90;;;;;;4994658;28;20175;-88
2022/01/02 06:30:46;;;;;;;16.47;10.43;;;1.80;99.90;;;;;;5012383;28;20172;-88
2022/01/02 06:33:12;;;;;;;12.87;8.47;;;1.80;99.90;;;;;;4995982;28;20179;-87
2022/01/02 06:35:38;;;;;;;13.47;9.97;;;1.80;99.90;;;;;;5012109;28;20186;-88
2022/01/02 06:38:19;;;;;;;10.83;7.73;;;1.80;99.90;;;;;;5012013;28;20186;-88
2022/01/02 06:40:49;;;;;;;10.33;7.17;;;1.90;99.90;;;;;;5012485;28;20205;-88
2022/01/02 06:43:16;;;;;;;11.27;7.60;;;1.90;99.90;;;;;;5012018;28;20183;-88
2022/01/02 06:45:46;;;;;;;10.37;7.50;;;2.00;99.90;;;;;;5012264;28;20171;-88
2022/01/02 06:48:12;;;;;;;11.50;8.03;;;2.00;99.90;;;;;;5011855;28;20549;-88
2022/01/02 06:50:39;;;;;;;15.90;11.30;;;2.00;99.90;;;;;;5013605;28;20249;-88
2022/01/02 06:53:06;;;;;;;11.90;9.13;;;2.00;99.90;;;;;;4999876;28;20203;-88
2022/01/02 06:55:32;;;;;;;13.07;9.63;;;2.00;99.90;;;;;;5015801;28;20206;-88
2022/01/02 06:57:59;;;;;;;11.37;7.30;;;2.00;99.90;;;;;;5016050;28;20194;-88
2022/01/02 07:00:26;;;;;;;10.87;7.80;;;2.00;99.90;;;;;;5015613;28;20213;-88
2022/01/02 07:02:52;;;;;;;9.33;6.93;;;2.00;99.90;;;;;;5016130;28;20203;-88
2022/01/02 07:05:18;;;;;;;10.67;7.80;;;2.00;99.90;;;;;;5000686;28;20184;-88
2022/01/02 07:07:45;;;;;;;10.47;8.00;;;2.00;99.90;;;;;;5017284;28;20178;-87
2022/01/02 07:10:14;;;;;;;10.10;7.10;;;2.10;99.90;;;;;;5009889;28;20190;-88
2022/01/02 07:12:40;;;;;;;10.43;7.97;;;2.10;99.90;;;;;;5015677;28;20203;-88
2022/01/02 07:15:08;;;;;;;13.57;8.47;;;2.10;99.90;;;;;;5003596;28;20194;-88
2022/01/02 07:17:35;;;;;;;8.57;6.90;;;2.10;99.90;;;;;;5005682;28;20191;-88
2022/01/02 07:20:14;;;;;;;9.07;6.97;;;2.10;99.90;;;;;;5015102;28;20210;-88
2022/01/02 07:22:42;;;;;;;8.60;7.03;;;2.10;99.90;;;;;;4998855;28;20271;-88
2022/01/02 07:25:10;;;;;;;6.93;6.07;;;2.10;99.90;;;;;;4999506;28;20241;-87
2022/01/02 07:27:52;;;;;;;8.40;6.67;;;2.10;99.90;;;;;;5011042;28;20179;-88
2022/01/02 07:30:19;;;;;;;8.80;6.93;;;2.10;99.90;;;;;;5002371;28;20237;-88
2022/01/02 07:32:45;;;;;;;9.27;7.03;;;2.10;99.90;;;;;;5003562;28;20203;-88
2022/01/02 07:35:16;;;;;;;38.60;23.60;;;2.10;99.90;;;;;;5018435;28;20748;-89
2022/01/02 07:37:47;;;;;;;18.63;14.20;;;2.10;99.90;;;;;;5000074;28;20183;-88
2022/01/02 07:40:18;;;;;;;18.37;12.77;;;2.10;99.90;;;;;;5015331;28;20210;-87
2022/01/02 07:42:44;;;;;;;16.77;11.77;;;2.20;99.90;;;;;;5015023;28;20675;-88
2022/01/02 07:45:17;;;;;;;10.73;7.80;;;2.20;99.90;;;;;;5015096;28;20545;-88
2022/01/02 07:47:43;;;;;;;12.93;8.30;;;2.20;99.90;;;;;;4999210;28;20182;-88
2022/01/02 07:50:09;;;;;;;13.97;10.17;;;2.20;99.90;;;;;;4999225;28;20179;-88
2022/01/02 07:52:35;;;;;;;14.20;10.30;;;2.20;99.90;;;;;;5039206;28;20466;-87
2022/01/02 07:55:01;;;;;;;15.97;11.07;;;2.20;99.90;;;;;;5054307;28;20190;-87
2022/01/02 07:57:27;;;;;;;17.00;11.50;;;2.30;99.90;;;;;;5018189;28;20185;-87
2022/01/02 07:59:52;;;;;;;16.33;11.87;;;2.30;99.90;;;;;;5018265;28;20206;-88
2022/01/02 08:02:18;;;;;;;18.40;11.90;;;2.40;99.90;;;;;;5016759;28;20269;-88
2022/01/02 08:04:44;;;;;;;30.87;21.97;;;2.40;99.90;;;;;;5018043;28;20230;-88
2022/01/02 08:07:13;;;;;;;26.80;19.90;;;2.40;99.90;;;;;;5017982;28;20178;-87
2022/01/02 08:09:39;;;;;;;18.40;14.13;;;2.50;99.90;;;;;;5034174;28;20179;-87
2022/01/02 08:12:05;;;;;;;16.10;12.30;;;2.50;99.90;;;;;;5017706;28;20214;-88
2022/01/02 08:14:31;;;;;;;16.63;12.03;;;2.50;99.90;;;;;;5034060;28;20186;-87
2022/01/02 08:16:57;;;;;;;25.87;17.47;;;2.60;99.90;;;;;;5034041;28;20197;-88
2022/01/02 08:19:23;;;;;;;20.67;14.53;;;2.60;99.90;;;;;;5034001;28;20231;-87
2022/01/02 08:21:49;;;;;;;17.13;13.10;;;2.60;99.90;;;;;;5004693;28;20658;-88
2022/01/02 08:24:15;;;;;;;16.13;11.03;;;2.60;99.90;;;;;;5006878;28;20215;-88
2022/01/02 08:26:41;;;;;;;15.57;11.57;;;2.70;99.90;;;;;;5014259;28;20212;-88
2022/01/02 08:29:28;;;;;;;12.00;8.37;;;2.70;99.90;;;;;;5018215;28;20190;-88
2022/01/02 08:32:32;;;;;;;14.03;9.30;;;2.80;99.90;;;;;;5013986;28;20203;-87
2022/01/02 08:34:59;;;;;;;41.87;28.23;;;2.90;99.90;;;;;;5013948;28;20635;-88
2022/01/02 08:37:24;;;;;;;36.40;22.73;;;3.00;99.90;;;;;;5014045;28;20233;-88
2022/01/02 08:39:50;;;;;;;60.70;39.50;;;3.10;99.90;;;;;;5006335;28;20206;-88
2022/01/02 08:42:16;;;;;;;41.53;29.33;;;3.10;99.90;;;;;;5027868;28;20201;-87
2022/01/02 08:44:43;;;;;;;125.60;83.50;;;3.20;99.90;;;;;;5023553;28;20178;-88
2022/01/02 08:47:11;;;;;;;122.17;89.20;;;3.30;99.90;;;;;;4997883;28;20180;-88
2022/01/02 08:49:54;;;;;;;50.83;38.97;;;3.40;99.90;;;;;;5010086;28;20217;-87
2022/01/02 08:52:21;;;;;;;114.27;88.70;;;3.50;99.90;;;;;;5005390;28;20198;-88
2022/01/02 08:54:47;;;;;;;80.67;60.63;;;3.60;99.90;;;;;;5000313;28;20179;-87
2022/01/02 08:57:15;;;;;;;45.90;31.17;;;3.70;99.90;;;;;;5029820;28;20229;-88
2022/01/02 08:59:41;;;;;;;33.47;27.50;;;3.80;99.90;;;;;;5002825;28;20272;-88
2022/01/02 09:02:17;;;;;;;12.60;10.10;;;3.90;99.90;;;;;;5027027;28;20195;-88
2022/01/02 09:04:43;;;;;;;12.67;8.83;;;4.00;99.90;;;;;;5019780;28;20178;-87
2022/01/02 09:07:10;;;;;;;10.27;6.93;;;4.00;99.90;;;;;;5005761;28;20178;-88
2022/01/02 09:09:55;;;;;;;11.47;8.00;;;4.00;99.90;;;;;;5016518;28;20183;-88
2022/01/02 09:12:22;;;;;;;11.80;7.47;;;4.20;99.90;;;;;;5010850;28;20743;-88
2022/01/02 09:14:49;;;;;;;10.93;7.10;;;4.30;99.90;;;;;;5014934;28;20183;-88
2022/01/02 09:17:15;;;;;;;11.77;8.07;;;4.50;99.90;;;;;;5007798;28;20233;-88
2022/01/02 09:19:41;;;;;;;10.90;7.67;;;4.70;99.90;;;;;;5006947;28;20215;-87
2022/01/02 09:22:07;;;;;;;11.80;8.00;;;4.90;99.90;;;;;;5014783;28;20202;-89
2022/01/02 09:24:34;;;;;;;10.60;7.43;;;5.10;99.90;;;;;;5011513;28;20179;-88
2022/01/02 09:27:01;;;;;;;9.77;7.03;;;5.30;99.90;;;;;;4997609;28;20232;-88
2022/01/02 09:29:27;;;;;;;9.77;6.63;;;5.40;99.90;;;;;;5010267;28;20176;-88
2022/01/02 09:32:30;;;;;;;9.37;7.17;;;5.40;99.90;;;;;;5012633;28;20252;-89
2022/01/02 09:34:56;;;;;;;10.83;6.73;;;5.50;99.90;;;;;;5012503;28;20188;-87
2022/01/02 09:37:34;;;;;;;14.90;10.07;;;5.70;99.90;;;;;;5012491;28;20185;-88
2022/01/02 09:40:01;;;;;;;13.13;8.17;;;5.80;99.90;;;;;;5011942;28;20221;-89
2022/01/02 09:42:27;;;;;;;9.77;7.23;;;5.90;99.90;;;;;;4998143;28;20207;-89
2022/01/02 09:44:54;;;;;;;9.80;7.60;;;6.00;99.90;;;;;;5009649;28;20178;-91
2022/01/02 09:47:23;;;;;;;10.67;7.53;;;6.00;99.90;;;;;;5002052;28;20184;-89
2022/01/02 09:49:49;;;;;;;9.67;6.57;;;6.10;99.90;;;;;;5003701;28;20183;-89
2022/01/02 09:52:16;;;;;;;8.43;6.50;;;6.10;99.90;;;;;;5012681;28;20201;-87
2022/01/02 09:54:43;;;;;;;8.13;6.10;;;6.10;99.90;;;;;;4996380;28;20186;-91
2022/01/02 09:57:09;;;;;;;10.33;8.40;;;6.20;99.90;;;;;;4996201;28;20559;-88
2022/01/02 09:59:35;;;;;;;11.20;7.37;;;6.20;99.90;;;;;;5002011;28;20273;-88
2022/01/02 10:02:02;;;;;;;11.93;8.27;;;6.30;99.90;;;;;;5015676;28;20198;-88
2022/01/02 10:04:39;;;;;;;13.70;8.40;;;6.40;99.90;;;;;;5016085;28;20173;-88
2022/01/02 10:07:25;;;;;;;10.03;6.70;;;6.50;99.90;;;;;;5015882;28;20174;-88
2022/01/02 10:09:51;;;;;;;9.07;5.87;;;6.60;99.90;;;;;;5015478;28;20178;-88
2022/01/02 10:12:30;;;;;;;8.07;5.33;;;6.60;99.90;;;;;;5009858;28;20255;-88
2022/01/02 10:15:16;;;;;;;9.03;5.23;;;6.80;99.90;;;;;;5023543;28;20174;-88
2022/01/02 10:18:07;;;;;;;6.40;4.80;;;6.80;99.90;;;;;;4998195;28;20676;-88
2022/01/02 10:20:45;;;;;;;7.77;5.50;;;6.80;99.90;;;;;;5023168;28;20666;-88
2022/01/02 10:23:23;;;;;;;7.23;5.20;;;6.80;99.90;;;;;;4996025;28;20198;-88
2022/01/02 10:25:55;;;;;;;6.90;4.90;;;6.80;99.90;;;;;;4995548;28;20187;-88
2022/01/02 10:28:25;;;;;;;6.87;5.20;;;6.80;99.90;;;;;;5013209;28;20331;-88
2022/01/02 10:31:01;;;;;;;7.10;5.53;;;6.80;99.90;;;;;;5032314;28;20232;-88
2022/01/02 10:33:44;;;;;;;8.10;5.03;;;6.80;99.90;;;;;;5012348;28;20186;-88
2022/01/02 10:36:14;;;;;;;6.90;5.20;;;6.80;99.90;;;;;;5012382;28;20186;-88
2022/01/02 10:39:08;;;;;;;8.80;5.60;;;6.80;99.90;;;;;;5012100;28;20297;-90
2022/01/02 10:41:37;;;;;;;7.87;5.77;;;6.80;99.90;;;;;;4998821;28;20313;-87
2022/01/02 10:44:26;;;;;;;8.50;6.43;;;6.80;99.90;;;;;;5015427;28;20231;-88
2022/01/02 10:47:11;;;;;;;14.00;9.83;;;6.90;99.90;;;;;;5009971;28;20651;-88
2022/01/02 10:49:53;;;;;;;14.33;8.20;;;6.90;99.90;;;;;;5028565;28;20186;-88
2022/01/02 10:52:34;;;;;;;10.97;8.37;;;6.90;99.90;;;;;;4996139;28;20213;-88
2022/01/02 10:55:12;;;;;;;13.97;9.70;;;6.90;99.90;;;;;;4997073;28;20241;-88
2022/01/02 10:57:42;;;;;;;12.37;9.13;;;6.90;99.90;;;;;;5002780;28;20175;-88
2022/01/02 11:00:09;;;;;;;13.20;10.17;;;6.90;99.90;;;;;;5012004;28;20223;-88
2022/01/02 11:02:35;;;;;;;11.73;9.13;;;6.90;99.90;;;;;;5014503;28;20210;-89
2022/01/02 11:05:07;;;;;;;10.40;7.63;;;7.00;99.90;;;;;;4996037;28;20197;-89
2022/01/02 11:07:36;;;;;;;7.80;6.77;;;7.00;99.90;;;;;;4995886;28;20183;-89
2022/01/02 11:10:03;;;;;;;9.03;6.87;;;7.10;99.90;;;;;;5004288;28;20196;-89
2022/01/02 11:12:31;;;;;;;9.80;6.80;;;7.10;99.90;;;;;;5005269;28;20207;-88
2022/01/02 11:14:58;;;;;;;9.30;6.73;;;7.20;99.90;;;;;;4995468;28;20286;-88
2022/01/02 11:17:24;;;;;;;9.87;7.00;;;7.30;99.90;;;;;;4995398;28;20290;-89
2022/01/02 11:19:50;;;;;;;9.50;6.80;;;7.40;99.90;;;;;;5013261;28;20202;-89
2022/01/02 11:22:52;;;;;;;10.13;6.63;;;7.40;99.90;;;;;;5013715;28;20237;-88
2022/01/02 11:25:42;;;;;;;6.90;6.10;;;7.50;99.90;;;;;;5020064;28;20170;-89
2022/01/02 11:28:25;;;;;;;12.07;8.20;;;7.60;99.90;;;;;;5023797;28;20167;-88
2022/01/02 11:30:53;;;;;;;9.37;7.60;;;7.70;99.90;;;;;;4995507;28;20179;-89
2022/01/02 11:33:27;;;;;;;14.30;11.60;;;7.70;99.90;;;;;;4995125;28;20187;-88
2022/01/02 11:35:56;;;;;;;9.60;7.07;;;7.80;99.90;;;;;;5011561;28;20185;-88
2022/01/02 11:38:25;;;;;;;6.30;4.80;;;8.00;99.90;;;;;;5018346;28;20183;-89
2022/01/02 11:40:56;;;;;;;6.77;4.83;;;8.10;99.90;;;;;;5018473;28;20202;-89
2022/01/02 11:43:49;;;;;;;6.43;5.40;;;8.20;99.90;;;;;;5018538;28;20185;-89
2022/01/02 11:46:56;;;;;;;7.43;5.77;;;8.30;99.90;;;;;;5018346;28;20232;-89
2022/01/02 11:49:23;;;;;;;6.77;5.70;;;8.20;99.90;;;;;;5018047;28;20205;-89
2022/01/02 11:52:07;;;;;;;6.73;5.40;;;8.20;99.90;;;;;;5018005;28;20256;-88
2022/01/02 11:54:35;;;;;;;8.40;5.70;;;8.20;99.90;;;;;;5017329;28;20179;-88
2022/01/02 11:57:18;;;;;;;7.90;5.77;;;8.20;99.90;;;;;;5017350;28;20178;-88
2022/01/02 11:59:47;;;;;;;6.87;5.23;;;8.20;99.90;;;;;;5017939;28;20182;-88
2022/01/02 12:02:25;;;;;;;9.00;6.17;;;8.20;99.90;;;;;;5017877;28;20230;-88
2022/01/02 12:07:36;;;;;;;6.23;5.17;;;8.30;99.90;;;;;;5022468;28;20218;-89
2022/01/02 12:10:14;;;;;;;8.47;6.03;;;8.40;99.90;;;;;;5000538;28;20197;-89
2022/01/02 12:13:16;;;;;;;8.33;6.30;;;8.50;99.90;;;;;;5004622;28;20235;-88
2022/01/02 12:15:42;;;;;;;9.97;7.30;;;8.70;99.90;;;;;;5017828;28;20189;-89
2022/01/02 12:18:28;;;;;;;7.87;6.53;;;8.80;99.90;;;;;;5017759;28;20214;-88
2022/01/02 12:20:57;;;;;;;7.63;5.70;;;8.90;99.90;;;;;;5012842;28;20217;-89
2022/01/02 12:23:35;;;;;;;7.73;5.80;;;8.90;99.90;;;;;;5018069;28;20178;-88
2022/01/02 12:26:18;;;;;;;6.93;5.83;;;9.00;99.90;;;;;;5017703;28;20178;-89
2022/01/02 12:28:46;;;;;;;8.60;5.73;;;9.00;99.90;;;;;;5033163;28;20214;-89
2022/01/02 12:31:18;;;;;;;8.83;6.77;;;9.10;99.90;;;;;;5019060;28;20198;-88
2022/01/02 12:33:45;;;;;;;8.03;5.80;;;9.20;99.90;;;;;;5017367;28;20187;-88
2022/01/02 12:36:21;;;;;;;8.77;5.43;;;9.30;99.90;;;;;;5018111;28;20191;-81
2022/01/02 12:38:59;;;;;;;14.17;5.97;;;9.40;99.90;;;;;;5018136;28;20199;-90
2022/01/02 12:41:27;;;;;;;6.63;4.63;;;9.50;99.90;;;;;;5017347;28;20210;-89
2022/01/02 12:44:43;;;;;;;6.37;5.10;;;9.60;99.90;;;;;;5018059;28;20176;-88
2022/01/02 12:47:14;;;;;;;7.97;6.07;;;9.60;99.90;;;;;;5016624;28;20176;-88
2022/01/02 12:49:45;;;;;;;6.20;4.47;;;9.60;99.90;;;;;;5014514;28;20183;-88
2022/01/02 12:52:14;;;;;;;7.40;4.57;;;9.60;99.90;;;;;;5004654;28;20668;-88
2022/01/02 12:54:42;;;;;;;4.83;3.87;;;9.70;99.90;;;;;;4995316;28;20187;-88
2022/01/02 12:57:11;;;;;;;5.87;4.07;;;9.80;99.90;;;;;;4995195;28;20187;-88
2022/01/02 12:59:39;;;;;;;5.03;4.47;;;9.90;99.90;;;;;;4998736;28;20195;-88
2022/01/02 13:02:13;;;;;;;5.73;3.70;;;10.00;99.90;;;;;;5011423;28;20226;-88
2022/01/02 13:04:46;;;;;;;4.50;3.63;;;10.10;99.90;;;;;;5011668;28;20237;-88
2022/01/02 13:07:14;;;;;;;4.10;3.37;;;10.30;99.90;;;;;;5011555;28;20180;-88
2022/01/02 13:09:59;;;;;;;5.30;3.50;;;10.30;99.90;;;;;;5068145;28;20642;-39
2022/01/02 13:12:28;;;;;;;4.30;3.40;;;10.40;99.90;;;;;;5067178;28;20183;-38
2022/01/02 13:14:56;;;;;;;5.30;2.97;;;10.40;99.90;;;;;;5067091;28;20179;-39
2022/01/02 13:17:30;;;;;;;4.07;3.30;;;10.50;99.90;;;;;;5050384;28;20201;-40